createdAt,value
2022-08-20T00:03:05.815Z,8.18
2022-08-20T00:08:08.178Z,8.05
2022-08-20T00:13:11.225Z,8.25
2022-08-20T00:18:16.817Z,9.02
2022-08-20T00:23:18.825Z,7.82
2022-08-20T00:28:20.541Z,8.00
2022-08-20T00:33:23.074Z,8.40
2022-08-20T00:38:25.290Z,7.32
2022-08-20T00:43:28.557Z,8.65
2022-08-20T00:48:32.013Z,7.30
2022-08-20T00:53:34.698Z,7.80
2022-08-20T00:58:37.433Z,6.55
2022-08-20T01:03:39.876Z,6.88
2022-08-20T01:08:41.890Z,6.97
2022-08-20T01:13:44.196Z,6.78
2022-08-20T01:18:47.820Z,6.70
2022-08-20T01:23:56.818Z,6.63
2022-08-20T01:29:03.928Z,6.23
2022-08-20T01:34:07.014Z,6.35
2022-08-20T01:39:10.025Z,5.50
2022-08-20T01:44:16.806Z,6.05
2022-08-20T01:49:23.473Z,5.95
2022-08-20T01:54:25.390Z,5.63
2022-08-20T01:59:27.221Z,5.45
2022-08-20T02:04:28.714Z,5.65
2022-08-20T02:09:31.669Z,5.05
2022-08-20T02:14:33.409Z,5.03
2022-08-20T02:19:38.324Z,5.22
2022-08-20T02:24:39.771Z,5.47
2022-08-20T02:29:41.414Z,4.50
2022-08-20T02:34:43.265Z,5.22
2022-08-20T02:39:45.729Z,4.30
2022-08-20T02:44:47.211Z,4.10
2022-08-20T02:49:48.708Z,4.47
2022-08-20T02:54:50.353Z,4.63
2022-08-20T02:59:54.699Z,5.22
2022-08-20T03:04:56.152Z,5.30
2022-08-20T03:09:57.725Z,4.68
2022-08-20T03:14:59.229Z,5.22
2022-08-20T03:20:01.006Z,4.82
2022-08-20T03:25:03.361Z,4.43
2022-08-20T03:30:06.296Z,4.68
2022-08-20T03:35:09.449Z,5.72
2022-08-20T03:40:12.924Z,4.93
2022-08-20T03:45:18.508Z,4.82
2022-08-20T03:50:24.268Z,5.00
2022-08-20T03:55:26.989Z,5.05
2022-08-20T04:00:30.101Z,5.35
2022-08-20T04:05:31.680Z,5.75
2022-08-20T04:10:33.200Z,5.18
2022-08-20T04:15:35.711Z,5.25
2022-08-20T04:20:38.417Z,5.35
2022-08-20T04:25:43.288Z,5.18
2022-08-20T04:30:51.690Z,5.95
2022-08-20T04:35:54.141Z,5.63
2022-08-20T04:40:58.750Z,5.45
2022-08-20T04:46:01.925Z,5.30
2022-08-20T04:51:04.002Z,5.68
2022-08-20T04:56:05.618Z,6.00
2022-08-20T05:01:10.842Z,5.25
2022-08-20T05:06:12.542Z,6.13
2022-08-20T05:11:34.601Z,5.55
2022-08-20T05:16:38.594Z,5.38
2022-08-20T05:21:40.552Z,5.30
2022-08-20T05:26:42.065Z,4.85
2022-08-20T05:31:43.558Z,4.57
2022-08-20T05:36:49.183Z,5.18
2022-08-20T05:41:51.279Z,4.60
2022-08-20T05:46:52.720Z,4.70
2022-08-20T05:51:54.282Z,5.15
2022-08-20T05:56:56.510Z,4.55
2022-08-20T06:01:57.950Z,4.90
2022-08-20T06:07:04.108Z,4.25
2022-08-20T06:12:06.673Z,4.22
2022-08-20T06:17:13.422Z,4.32
2022-08-20T06:22:19.926Z,3.97
2022-08-20T06:32:32.349Z,4.80
2022-08-20T06:37:36.895Z,5.75
2022-08-20T06:42:47.861Z,5.78
2022-08-20T06:47:50.927Z,5.20
2022-08-20T06:52:53.320Z,5.30
2022-08-20T06:57:59.429Z,5.68
2022-08-20T07:03:01.702Z,6.07
2022-08-20T07:08:03.686Z,5.88
2022-08-20T07:13:06.421Z,6.03
2022-08-20T07:18:09.865Z,5.93
2022-08-20T07:23:12.129Z,6.25
2022-08-20T07:28:15.716Z,5.55
2022-08-20T07:33:17.221Z,5.55
2022-08-20T07:38:24.801Z,5.80
2022-08-20T07:43:26.337Z,5.82
2022-08-20T07:48:31.729Z,6.10
2022-08-20T07:53:36.390Z,5.60
2022-08-20T07:58:39.041Z,5.75
2022-08-20T08:03:49.894Z,6.25
2022-08-20T08:08:52.333Z,5.55
2022-08-20T08:13:54.362Z,5.93
2022-08-20T08:18:56.972Z,6.13
2022-08-20T08:23:58.550Z,6.13
2022-08-20T08:28:59.974Z,6.80
2022-08-20T08:34:01.645Z,5.57
2022-08-20T08:39:03.114Z,6.50
2022-08-20T08:44:06.878Z,4.50
2022-08-20T08:49:10.388Z,4.57
2022-08-20T08:54:16.725Z,5.30
2022-08-20T08:59:18.906Z,5.70
2022-08-20T09:04:22.069Z,6.03
2022-08-20T09:09:26.518Z,6.60
2022-08-20T09:14:27.960Z,6.53
2022-08-20T09:19:37.682Z,8.90
2022-08-20T09:24:39.434Z,7.43
2022-08-20T09:29:40.897Z,8.40
2022-08-20T09:34:47.718Z,7.07
2022-08-20T09:39:49.195Z,8.40
2022-08-20T09:44:51.002Z,8.30
2022-08-20T09:49:52.861Z,8.57
2022-08-20T09:55:01.569Z,8.85
2022-08-20T10:00:08.146Z,9.30
2022-08-20T10:05:11.607Z,9.70
2022-08-20T10:10:14.983Z,10.00
2022-08-20T10:15:16.501Z,11.35
2022-08-20T10:20:19.088Z,10.70
2022-08-20T10:25:20.650Z,10.65
2022-08-20T10:30:22.333Z,11.52
2022-08-20T10:35:23.826Z,10.80
2022-08-20T10:40:25.431Z,10.80
2022-08-20T10:45:26.867Z,10.73
2022-08-20T10:50:30.244Z,12.02
2022-08-20T10:55:32.502Z,10.45
2022-08-20T11:00:34.117Z,10.98
2022-08-20T11:05:35.574Z,11.65
2022-08-20T11:10:38.353Z,12.00
2022-08-20T11:15:41.769Z,12.32
2022-08-20T11:20:43.194Z,11.20
2022-08-20T11:25:44.645Z,12.13
2022-08-20T11:30:46.666Z,12.13
2022-08-20T11:35:48.926Z,11.18
2022-08-20T11:40:51.134Z,11.60
2022-08-20T11:45:55.332Z,12.25
2022-08-20T11:50:56.745Z,12.07
2022-08-20T11:55:58.325Z,14.13
2022-08-20T12:01:00.277Z,12.15
2022-08-20T12:06:01.721Z,12.93
2022-08-20T12:11:05.672Z,11.98
2022-08-20T12:16:07.246Z,12.38
2022-08-20T12:21:08.693Z,12.02
2022-08-20T12:26:10.304Z,10.20
2022-08-20T12:31:11.725Z,11.45
2022-08-20T12:36:13.159Z,10.63
2022-08-20T12:41:14.598Z,11.38
2022-08-20T12:46:16.082Z,11.35
2022-08-20T12:51:17.557Z,11.07
2022-08-20T12:56:19.019Z,9.82
2022-08-20T13:01:20.489Z,9.65
2022-08-20T13:06:21.941Z,8.82
2022-08-20T13:11:24.247Z,9.30
2022-08-20T13:16:25.670Z,7.88
2022-08-20T13:21:27.479Z,8.00
2022-08-20T13:26:28.909Z,7.32
2022-08-20T13:31:30.369Z,7.68
2022-08-20T13:36:32.045Z,7.60
2022-08-20T13:41:33.869Z,7.78
2022-08-20T13:46:35.301Z,6.63
2022-08-20T13:51:36.785Z,6.20
2022-08-20T13:56:38.365Z,5.22
2022-08-20T14:01:39.880Z,4.15
2022-08-20T14:06:41.375Z,3.65
2022-08-20T14:11:42.923Z,3.00
2022-08-20T14:16:44.373Z,3.38
2022-08-20T14:21:45.814Z,3.67
2022-08-20T14:26:47.230Z,3.38
2022-08-20T14:31:48.662Z,4.22
2022-08-20T14:36:50.100Z,4.57
2022-08-20T14:41:52.170Z,5.53
2022-08-20T14:46:53.598Z,6.32
2022-08-20T14:51:55.109Z,6.53
2022-08-20T14:57:01.957Z,6.90
2022-08-20T15:02:06.102Z,7.00
2022-08-20T15:07:13.453Z,6.15
2022-08-20T15:12:17.750Z,7.32
2022-08-20T15:17:20.186Z,5.88
2022-08-20T15:22:22.194Z,5.43
2022-08-20T15:27:24.670Z,5.07
2022-08-20T15:32:26.127Z,5.95
2022-08-20T15:37:27.781Z,5.72
2022-08-20T15:42:29.203Z,5.85
2022-08-20T15:47:33.979Z,6.05
2022-08-20T15:52:41.570Z,6.15
2022-08-20T15:57:55.566Z,5.38
2022-08-20T16:03:12.193Z,5.00
2022-08-20T16:08:16.665Z,5.50
2022-08-20T16:13:38.389Z,5.63
2022-08-20T16:18:40.442Z,5.32
2022-08-20T16:23:42.568Z,5.50
2022-08-20T16:28:51.808Z,5.93
2022-08-20T16:33:53.209Z,5.78
2022-08-20T16:38:58.306Z,7.03
2022-08-20T16:44:03.194Z,7.05
2022-08-20T16:49:11.318Z,6.18
2022-08-20T16:54:12.819Z,6.80
2022-08-20T16:59:26.591Z,5.82
2022-08-20T17:04:28.947Z,6.75
2022-08-20T17:09:35.725Z,7.22
2022-08-20T17:14:46.230Z,7.97
2022-08-20T17:19:54.545Z,8.10
2022-08-20T17:24:58.416Z,8.30
2022-08-20T17:30:05.793Z,8.80
2022-08-20T17:35:07.682Z,8.48
2022-08-20T17:40:17.810Z,7.88
2022-08-20T17:45:24.034Z,7.97
2022-08-20T17:50:31.004Z,8.52
2022-08-20T17:55:33.416Z,8.40
2022-08-20T18:00:34.966Z,8.13
2022-08-20T18:05:38.753Z,8.55
2022-08-20T18:10:52.716Z,9.52
2022-08-20T18:15:56.220Z,9.20
2022-08-20T18:21:06.601Z,8.55
2022-08-20T18:26:10.944Z,6.80
2022-08-20T18:31:26.802Z,6.45
2022-08-20T18:36:28.981Z,3.53
2022-08-20T18:41:32.784Z,3.55
2022-08-20T18:46:34.456Z,2.90
2022-08-20T18:51:39.612Z,2.85
2022-08-20T18:56:42.098Z,3.42
2022-08-20T19:01:46.027Z,3.13
2022-08-20T19:06:47.485Z,3.45
2022-08-20T19:11:56.833Z,2.72
2022-08-20T19:17:06.486Z,2.67
2022-08-20T19:22:10.841Z,2.80
2022-08-20T19:27:12.815Z,3.03
2022-08-20T19:32:22.431Z,2.65
2022-08-20T19:37:35.554Z,1.92
2022-08-20T19:42:42.936Z,2.20
2022-08-20T19:47:54.505Z,1.92
2022-08-20T19:53:16.192Z,1.73
2022-08-20T19:58:26.359Z,1.85
2022-08-20T20:03:40.601Z,1.63
2022-08-20T20:08:50.221Z,1.50
2022-08-20T20:13:51.683Z,1.60
2022-08-20T20:19:15.751Z,1.70
2022-08-20T20:24:25.158Z,1.60
2022-08-20T20:29:34.175Z,1.60
2022-08-20T20:34:36.862Z,1.45
2022-08-20T20:40:19.947Z,1.50
2022-08-20T20:45:21.501Z,1.73
2022-08-20T20:50:34.661Z,1.40
2022-08-20T20:55:37.545Z,1.33
2022-08-20T21:00:38.988Z,1.30
2022-08-20T21:05:40.730Z,1.10
2022-08-20T21:10:42.579Z,1.27
2022-08-20T21:15:44.066Z,1.10
2022-08-20T21:20:45.526Z,1.58
2022-08-20T21:25:46.977Z,1.35
2022-08-20T21:30:48.520Z,1.00
2022-08-20T21:35:59.849Z,1.23
2022-08-20T21:41:01.764Z,0.80
2022-08-20T21:46:04.140Z,0.70
2022-08-20T21:51:06.722Z,0.80
2022-08-20T21:56:08.386Z,0.75
2022-08-20T22:01:10.710Z,0.75
2022-08-20T22:06:13.041Z,0.77
2022-08-20T22:11:14.492Z,1.00
2022-08-20T22:16:17.087Z,0.60
2022-08-20T22:21:20.492Z,0.85
2022-08-20T22:26:22.429Z,1.15
2022-08-20T22:31:29.937Z,0.68
2022-08-20T22:36:32.329Z,0.70
2022-08-20T22:41:34.265Z,0.95
2022-08-20T22:46:37.828Z,0.60
2022-08-20T22:51:41.140Z,0.80
2022-08-20T22:56:42.878Z,0.80
2022-08-20T23:01:45.450Z,0.68
2022-08-20T23:06:47.077Z,0.68
2022-08-20T23:11:48.864Z,0.80
2022-08-20T23:16:54.446Z,0.80
2022-08-20T23:21:59.309Z,0.90
2022-08-20T23:27:00.865Z,0.80
2022-08-20T23:32:02.428Z,0.90
2022-08-20T23:37:04.514Z,1.00
2022-08-20T23:42:06.009Z,1.20
2022-08-20T23:47:08.433Z,0.90
2022-08-20T23:52:09.894Z,1.00
2022-08-20T23:57:11.374Z,0.90
